Terminal Aerodrome Forecast
Issued by NWS Louisville, KY

Home | Current Version | Previous Version | Text Only | Print | Product List | Glossary On
Versions: 1 2 3 4 5 6 7 8 9 10 11 12 13 14 15 16 17 18 19 20 21
000
FTUS43 KLMK 260330 AAB
TAFBWG
TAF AMD
KBWG 260330Z 2604/2624 17003KT P6SM BKN150
     FM260600 18002KT 4SM BR SCT050 BKN150
      TEMPO 2608/2612 1SM BR
     FM261400 20012KT P6SM BKN050=

USA.gov is the U.S. government's official web portal to all federal, state and local government web resources and services.